createdAt,value
2022-11-22T00:07:29.811Z,98427.20
2022-11-22T00:17:35.994Z,98428.23
2022-11-22T00:27:42.191Z,98431.90
2022-11-22T00:37:47.818Z,98450.42
2022-11-22T00:47:53.596Z,98467.30
2022-11-22T00:57:59.174Z,98478.40
2022-11-22T01:08:04.911Z,98481.95
2022-11-22T01:18:10.444Z,98488.05
2022-11-22T01:28:16.179Z,98493.96
2022-11-22T01:38:21.832Z,98492.90
2022-11-22T01:48:38.727Z,98484.21
2022-11-22T01:58:48.823Z,98486.27
2022-11-22T02:09:00.472Z,98475.23
2022-11-22T02:19:06.897Z,98471.86
2022-11-22T02:29:12.929Z,98467.91
2022-11-22T02:39:22.865Z,98457.14
2022-11-22T02:49:28.725Z,98464.27
2022-11-22T02:59:34.625Z,98459.40
2022-11-22T03:09:40.442Z,98460.61
2022-11-22T03:19:46.146Z,98456.08
2022-11-22T03:29:51.951Z,98439.30
2022-11-22T03:39:57.500Z,98433.19
2022-11-22T03:50:03.131Z,98451.92
2022-11-22T04:00:11.408Z,98454.69
2022-11-22T04:10:22.062Z,98467.80
2022-11-22T04:20:47.100Z,98469.61
2022-11-22T04:31:10.859Z,98468.27
2022-11-22T04:41:16.396Z,98459.81
2022-11-22T04:51:39.392Z,98454.44
2022-11-22T05:01:44.981Z,98448.98
2022-11-22T05:11:50.644Z,98453.83
2022-11-22T05:21:56.219Z,98444.75
2022-11-22T05:32:01.787Z,98448.77
2022-11-22T05:42:07.797Z,98449.94
2022-11-22T05:52:13.737Z,98459.42
2022-11-22T06:02:19.489Z,98466.48
2022-11-22T06:12:25.174Z,98458.69
2022-11-22T06:22:30.746Z,98464.16
2022-11-22T06:32:37.093Z,98469.48
2022-11-22T06:42:43.009Z,98474.47
2022-11-22T06:52:54.545Z,98470.73
2022-11-22T07:03:00.187Z,98482.63
2022-11-22T07:13:05.794Z,98494.15
2022-11-22T07:23:12.585Z,98497.64
2022-11-22T07:33:18.387Z,98507.59
2022-11-22T07:43:23.947Z,98510.87
2022-11-22T07:53:30.027Z,98513.54
2022-11-22T08:03:35.732Z,98504.15
2022-11-22T08:13:42.520Z,98499.64
2022-11-22T08:23:49.588Z,98510.24
2022-11-22T08:33:54.760Z,98509.58
2022-11-22T08:44:00.320Z,98499.10
2022-11-22T08:54:06.148Z,98504.92
2022-11-22T09:04:11.857Z,98540.32
2022-11-22T09:14:17.492Z,98563.19
2022-11-22T09:24:23.114Z,98572.63
2022-11-22T09:34:28.711Z,98562.31
2022-11-22T09:44:46.307Z,98563.65
2022-11-22T09:54:56.716Z,98532.59
2022-11-22T10:05:04.876Z,98520.08
2022-11-22T10:15:20.918Z,98504.34
2022-11-22T10:25:35.713Z,98504.06
2022-11-22T10:36:06.355Z,98502.83
2022-11-22T10:46:20.101Z,98513.09
2022-11-22T10:56:31.462Z,98522.38
2022-11-22T11:07:10.470Z,98518.52
2022-11-22T11:17:08.140Z,98517.17
2022-11-22T11:27:14.080Z,98495.40
2022-11-22T11:37:27.938Z,98480.70
2022-11-22T11:47:37.620Z,98466.38
2022-11-22T11:57:46.073Z,98458.88
2022-11-22T12:07:51.695Z,98462.89
2022-11-22T12:18:05.690Z,98446.83
2022-11-22T12:28:21.631Z,98439.35
2022-11-22T12:38:32.756Z,98446.73
2022-11-22T12:48:48.960Z,98453.52
2022-11-22T12:59:02.541Z,98458.08
2022-11-22T13:09:12.721Z,98459.96
2022-11-22T13:19:21.068Z,98458.19
2022-11-22T13:29:29.136Z,98453.65
2022-11-22T13:39:37.800Z,98453.63
2022-11-22T13:49:48.675Z,98443.57
2022-11-22T14:00:25.765Z,98432.25
2022-11-22T14:10:35.798Z,98425.97
2022-11-22T14:20:55.320Z,98431.70
2022-11-22T14:31:01.231Z,98444.55
2022-11-22T14:41:42.093Z,98436.03
2022-11-22T14:51:53.089Z,98428.09
2022-11-22T15:02:20.339Z,98428.65
2022-11-22T15:12:56.766Z,98452.94
2022-11-22T16:06:05.813Z,98457.40
2022-11-22T16:15:37.207Z,98469.50
2022-11-22T16:25:45.245Z,98473.75
2022-11-22T16:35:55.367Z,98483.55
2022-11-22T16:46:01.089Z,98488.02
2022-11-22T16:56:07.594Z,98483.08
2022-11-22T17:06:18.685Z,98495.95
2022-11-22T17:16:24.503Z,98502.37
2022-11-22T17:26:32.641Z,98519.39
2022-11-22T17:36:39.059Z,98531.20
2022-11-22T17:46:45.151Z,98525.02
2022-11-22T17:56:50.747Z,98532.15
2022-11-22T18:06:56.401Z,98538.75
2022-11-22T18:17:02.539Z,98533.12
2022-11-22T18:27:08.234Z,98536.45
2022-11-22T18:37:13.841Z,98534.78
2022-11-22T18:47:19.607Z,98523.33
2022-11-22T18:57:25.280Z,98513.02
2022-11-22T19:07:31.053Z,98514.14
2022-11-22T19:17:39.053Z,98515.92
2022-11-22T19:27:47.867Z,98524.59
2022-11-22T19:37:53.484Z,98522.41
2022-11-22T19:47:59.615Z,98517.50
2022-11-22T19:58:05.975Z,98518.25
2022-11-22T20:08:11.691Z,98531.98
2022-11-22T20:18:17.316Z,98548.11
2022-11-22T20:28:23.027Z,98540.34
2022-11-22T20:38:28.778Z,98533.81
2022-11-22T20:48:35.896Z,98535.64
2022-11-22T20:58:42.195Z,98537.17
2022-11-22T21:08:48.097Z,98529.60
2022-11-22T21:18:54.941Z,98535.52
2022-11-22T21:28:59.571Z,98543.20
2022-11-22T21:39:05.283Z,98532.14
2022-11-22T21:49:11.002Z,98535.02
2022-11-22T21:59:17.709Z,98540.70
2022-11-22T22:09:23.343Z,98534.27
2022-11-22T22:19:29.265Z,98534.64
2022-11-22T22:29:35.328Z,98539.73
2022-11-22T22:39:41.310Z,98540.74
2022-11-22T22:49:46.968Z,98545.15
2022-11-22T22:59:53.092Z,98542.95
2022-11-22T23:09:58.711Z,98531.61
2022-11-22T23:20:04.578Z,98528.54
2022-11-22T23:30:11.904Z,98533.76
2022-11-22T23:40:18.121Z,98531.52
2022-11-22T23:50:23.735Z,98542.28
